createdAt,value
2023-02-19T00:03:15.011Z,11.85
2023-02-19T00:10:14.516Z,19.10
2023-02-19T00:17:09.296Z,12.98
2023-02-19T00:24:03.980Z,14.77
2023-02-19T00:30:58.688Z,10.65
2023-02-19T00:37:50.355Z,7.47
2023-02-19T00:44:41.019Z,10.63
2023-02-19T00:51:34.298Z,15.45
2023-02-19T00:58:28.952Z,14.15
2023-02-19T01:05:23.039Z,11.88
2023-02-19T01:12:18.696Z,9.83
2023-02-19T01:19:11.447Z,11.88
2023-02-19T01:26:09.102Z,12.05
2023-02-19T01:33:01.729Z,11.38
2023-02-19T01:39:56.400Z,11.55
2023-02-19T01:46:48.170Z,12.70
2023-02-19T01:53:46.823Z,9.50
2023-02-19T02:00:37.495Z,9.88
2023-02-19T02:07:47.214Z,9.75
2023-02-19T02:14:45.496Z,11.07
2023-02-19T02:22:17.894Z,12.95
2023-02-19T02:30:00.621Z,11.98
2023-02-19T02:36:59.325Z,9.43
2023-02-19T02:43:53.897Z,7.93
2023-02-19T02:51:29.881Z,6.68
2023-02-19T02:58:29.309Z,15.45
2023-02-19T03:05:42.311Z,7.43
2023-02-19T03:12:53.595Z,11.80
2023-02-19T03:19:52.728Z,11.27
2023-02-19T03:26:44.188Z,15.95
2023-02-19T03:33:37.124Z,15.98
2023-02-19T03:40:31.800Z,9.35
2023-02-19T03:47:35.510Z,8.13
2023-02-19T03:54:43.185Z,9.65
2023-02-19T04:01:35.660Z,9.80
2023-02-19T04:08:26.616Z,7.65
2023-02-19T04:15:26.872Z,14.63
2023-02-19T04:22:28.056Z,6.32
2023-02-19T04:29:19.671Z,8.30
2023-02-19T04:36:14.372Z,14.63
2023-02-19T04:43:12.019Z,10.60
2023-02-19T04:50:09.503Z,13.38
2023-02-19T04:57:01.404Z,9.70
2023-02-19T05:03:54.079Z,9.73
2023-02-19T05:10:45.435Z,9.75
2023-02-19T05:17:41.399Z,6.05
2023-02-19T05:24:34.715Z,7.75
2023-02-19T05:31:29.998Z,11.88
2023-02-19T05:38:20.483Z,8.75
2023-02-19T05:45:38.024Z,11.93
2023-02-19T05:52:31.901Z,9.70
2023-02-19T05:59:29.206Z,15.23
2023-02-19T06:06:24.143Z,11.32
2023-02-19T06:13:20.951Z,7.88
2023-02-19T06:20:15.686Z,15.65
2023-02-19T06:27:12.351Z,10.80
2023-02-19T06:34:08.091Z,11.82
2023-02-19T06:41:06.844Z,8.70
2023-02-19T06:48:00.486Z,8.70
2023-02-19T06:54:55.743Z,7.15
2023-02-19T07:01:48.816Z,11.93
2023-02-19T07:08:45.535Z,15.93
2023-02-19T07:15:37.228Z,11.95
2023-02-19T07:22:31.834Z,15.55
2023-02-19T07:29:22.410Z,14.88
2023-02-19T07:36:19.797Z,13.35
2023-02-19T07:50:06.170Z,4.75
2023-02-19T07:57:00.766Z,5.00
2023-02-19T08:03:54.931Z,10.07
2023-02-19T08:11:06.232Z,9.30
2023-02-19T08:18:03.317Z,4.60
2023-02-19T08:24:58.998Z,10.35
2023-02-19T08:31:51.747Z,7.63
2023-02-19T08:38:43.427Z,8.00
2023-02-19T08:45:35.042Z,14.05
2023-02-19T08:52:31.716Z,7.68
2023-02-19T08:59:27.399Z,9.25
2023-02-19T09:06:26.786Z,9.15
2023-02-19T09:13:19.883Z,9.65
2023-02-19T09:20:14.516Z,5.88
2023-02-19T09:27:09.192Z,8.00
2023-02-19T09:34:06.451Z,7.72
2023-02-19T09:40:57.513Z,7.35
2023-02-19T09:47:50.248Z,9.07
2023-02-19T09:54:44.871Z,10.13
2023-02-19T10:01:45.329Z,14.50
2023-02-19T10:08:42.083Z,7.65
2023-02-19T10:15:44.602Z,4.53
2023-02-19T10:22:39.727Z,7.65
2023-02-19T10:29:32.260Z,4.18
2023-02-19T10:36:46.649Z,5.18
2023-02-19T10:43:42.079Z,9.93
2023-02-19T10:50:45.789Z,5.13
2023-02-19T10:57:40.298Z,5.25
2023-02-19T11:11:45.221Z,5.65
2023-02-19T11:18:52.741Z,1.48
2023-02-19T11:25:54.288Z,5.78
2023-02-19T11:32:54.862Z,3.50
2023-02-19T11:39:53.522Z,4.80
2023-02-19T11:47:03.290Z,4.40
2023-02-19T11:54:22.059Z,3.72
2023-02-19T12:01:49.724Z,2.00
2023-02-19T12:09:30.765Z,3.33
2023-02-19T12:17:20.632Z,2.63
2023-02-19T12:24:46.448Z,2.03
2023-02-19T12:32:15.186Z,4.03
2023-02-19T12:39:36.183Z,1.25
2023-02-19T12:47:00.932Z,3.92
2023-02-19T12:54:11.706Z,1.98
2023-02-19T13:01:02.389Z,1.25
2023-02-19T13:08:12.131Z,2.10
2023-02-19T13:15:35.923Z,2.90
2023-02-19T13:30:04.485Z,1.73
2023-02-19T13:37:00.201Z,6.85
2023-02-19T13:43:58.892Z,1.65
2023-02-19T13:50:50.109Z,3.38
2023-02-19T13:57:45.169Z,1.88
2023-02-19T14:04:57.508Z,2.17
2023-02-19T14:11:48.589Z,3.28
2023-02-19T14:18:51.313Z,2.95
2023-02-19T14:26:07.682Z,1.55
2023-02-19T14:33:10.284Z,4.38
2023-02-19T14:40:03.481Z,2.58
2023-02-19T14:47:19.280Z,3.08
2023-02-19T14:54:52.115Z,3.25
2023-02-19T15:01:45.888Z,2.85
2023-02-19T15:08:51.359Z,1.92
2023-02-19T15:15:48.275Z,2.83
2023-02-19T15:22:41.864Z,3.03
2023-02-19T15:29:33.625Z,6.30
2023-02-19T15:36:36.633Z,3.65
2023-02-19T15:43:50.730Z,2.80
2023-02-19T15:50:46.443Z,2.72
2023-02-19T15:57:46.175Z,3.08
2023-02-19T16:04:40.262Z,7.10
2023-02-19T16:11:34.925Z,8.85
2023-02-19T16:18:26.587Z,7.72
2023-02-19T16:25:31.896Z,5.75
2023-02-19T16:32:26.668Z,6.65
2023-02-19T16:39:24.746Z,3.05
2023-02-19T16:46:16.369Z,11.95
2023-02-19T16:53:21.104Z,8.23
2023-02-19T17:00:20.800Z,5.22
2023-02-19T17:07:18.512Z,14.65
2023-02-19T17:14:11.829Z,14.60
2023-02-19T17:21:29.010Z,10.90
2023-02-19T17:28:24.677Z,11.60
2023-02-19T17:35:20.994Z,11.18
2023-02-19T17:42:15.090Z,5.57
2023-02-19T17:49:07.900Z,5.05
2023-02-19T17:56:05.396Z,4.97
2023-02-19T18:02:57.684Z,2.72
2023-02-19T18:09:50.371Z,3.58
2023-02-19T18:16:50.925Z,8.23
2023-02-19T18:23:41.337Z,6.60
2023-02-19T18:30:36.919Z,11.32
2023-02-19T18:37:30.502Z,9.68
2023-02-19T18:44:31.833Z,5.07
2023-02-19T18:51:25.878Z,6.63
2023-02-19T18:58:18.624Z,6.32
2023-02-19T19:05:12.239Z,3.75
2023-02-19T19:12:06.427Z,6.25
2023-02-19T19:18:56.223Z,12.48
2023-02-19T19:25:52.302Z,12.02
2023-02-19T19:32:45.196Z,10.68
2023-02-19T19:39:38.649Z,6.93
2023-02-19T19:46:34.208Z,10.73
2023-02-19T19:53:30.050Z,11.70
2023-02-19T20:00:23.797Z,21.85
2023-02-19T20:07:13.017Z,9.60
2023-02-19T20:14:14.175Z,10.63
2023-02-19T20:21:07.884Z,13.50
2023-02-19T20:28:04.583Z,13.95
2023-02-19T20:42:54.543Z,10.45
2023-02-19T20:49:37.334Z,11.75
2023-02-19T20:56:19.636Z,13.93
2023-02-19T21:03:02.135Z,8.52
2023-02-19T21:09:44.749Z,11.63
2023-02-19T21:16:32.062Z,5.30
2023-02-19T21:23:14.752Z,11.75
2023-02-19T21:29:57.128Z,14.63
2023-02-19T21:36:39.861Z,5.82
2023-02-19T21:43:22.164Z,5.97
2023-02-19T21:50:05.424Z,5.72
2023-02-19T21:56:48.819Z,4.93
2023-02-19T22:03:31.469Z,7.43
2023-02-19T22:10:15.421Z,10.02
2023-02-19T22:16:57.744Z,7.47
2023-02-19T22:23:42.874Z,6.80
2023-02-19T22:30:25.108Z,6.78
2023-02-19T22:37:07.799Z,5.30
2023-02-19T22:43:50.883Z,8.57
2023-02-19T22:50:33.459Z,2.97
2023-02-19T22:57:15.971Z,6.68
2023-02-19T23:04:01.244Z,7.03
2023-02-19T23:17:26.182Z,8.68
2023-02-19T23:24:09.465Z,9.23
2023-02-19T23:30:52.002Z,9.80
2023-02-19T23:37:34.690Z,6.80
2023-02-19T23:44:18.156Z,6.05
2023-02-19T23:51:00.404Z,14.30
2023-02-19T23:57:45.596Z,10.50
